Time;durP1;ratioP1;P1;durP2;ratioP2;P2;SDS_P1;SDS_P2;PMS_P1;PMS_P2;Temp;Humidity;BMP_temperature;BMP_pressure;BME280_temperature;BME280_humidity;BME280_pressure;Samples;Min_cycle;Max_cycle;Signal;HPM_P1;HPM_P2
2023/07/26 00:01:48;;;;;;;0.32;0.32;;;16.90;99.90;;;;;;5092389;28;20028;-78
2023/07/26 00:04:13;;;;;;;0.10;0.10;;;17.10;99.90;;;;;;5092295;28;20044;-78
2023/07/26 00:06:39;;;;;;;0.13;0.13;;;16.80;99.90;;;;;;5091134;28;20028;-78
2023/07/26 00:09:07;;;;;;;0.20;0.20;;;16.70;99.90;;;;;;5084121;28;20087;-78
2023/07/26 00:11:35;;;;;;;0.10;0.10;;;16.90;99.90;;;;;;5074743;28;20481;-78
2023/07/26 00:14:03;;;;;;;0.10;0.10;;;17.10;99.90;;;;;;5074342;28;20496;-78
2023/07/26 00:16:30;;;;;;;0.08;0.08;;;16.90;99.90;;;;;;5092421;28;20043;-78
2023/07/26 00:18:56;;;;;;;1.73;0.45;;;16.70;99.90;;;;;;5081508;28;20017;-78
2023/07/26 00:21:22;;;;;;;0.20;0.20;;;16.60;99.90;;;;;;5096147;28;20024;-78
2023/07/26 00:23:47;;;;;;;0.00;0.00;;;16.50;99.90;;;;;;5094748;28;20423;-78
2023/07/26 00:26:13;;;;;;;3.83;0.82;;;16.60;99.90;;;;;;5089562;28;20024;-78
2023/07/26 00:28:39;;;;;;;0.30;0.30;;;16.40;99.90;;;;;;5087061;28;20123;-78
2023/07/26 00:31:06;;;;;;;0.10;0.10;;;16.40;99.90;;;;;;5095561;28;20973;-78
2023/07/26 00:33:31;;;;;;;0.00;0.00;;;16.40;99.90;;;;;;5095685;28;20043;-78
2023/07/26 00:35:58;;;;;;;0.57;0.57;;;16.40;99.90;;;;;;5094509;28;20055;-75
2023/07/26 00:38:23;;;;;;;0.10;0.10;;;16.70;99.90;;;;;;5094663;28;20051;-76
2023/07/26 00:40:51;;;;;;;0.10;0.10;;;16.70;99.90;;;;;;5095566;28;20020;-75
2023/07/26 00:43:17;;;;;;;0.10;0.10;;;16.70;99.90;;;;;;5088183;28;20028;-76
2023/07/26 00:45:43;;;;;;;0.10;0.10;;;16.60;99.90;;;;;;5086454;28;20028;-76
2023/07/26 00:48:10;;;;;;;0.03;0.03;;;16.60;99.90;;;;;;5077043;28;20040;-76
2023/07/26 00:50:37;;;;;;;0.10;0.10;;;16.60;99.90;;;;;;5095620;28;20040;-78
2023/07/26 00:53:04;;;;;;;0.10;0.10;;;16.60;99.90;;;;;;5094183;28;20423;-78
2023/07/26 00:55:31;;;;;;;0.25;0.22;;;16.80;99.90;;;;;;5094277;28;20042;-76
2023/07/26 00:57:58;;;;;;;0.10;0.10;;;16.60;99.90;;;;;;5095250;28;20407;-78
2023/07/26 01:00:23;;;;;;;0.47;0.43;;;16.50;99.90;;;;;;5095584;28;20088;-78
2023/07/26 01:02:49;;;;;;;0.22;0.22;;;16.40;99.90;;;;;;5076798;28;20028;-77
2023/07/26 01:05:15;;;;;;;0.10;0.10;;;16.40;99.90;;;;;;5095342;28;20464;-78
2023/07/26 01:08:01;;;;;;;0.65;0.65;;;16.20;99.90;;;;;;5093924;28;20035;-78
2023/07/26 01:10:46;;;;;;;0.10;0.10;;;16.10;99.90;;;;;;5094180;28;20036;-76
2023/07/26 01:13:24;;;;;;;0.10;0.10;;;16.10;99.90;;;;;;5093653;28;20032;-78
2023/07/26 01:15:51;;;;;;;0.10;0.10;;;16.00;99.90;;;;;;5093855;28;20024;-78
2023/07/26 01:18:17;;;;;;;0.10;0.10;;;15.80;99.90;;;;;;5079965;28;20025;-78
2023/07/26 01:20:43;;;;;;;0.13;0.13;;;15.70;99.90;;;;;;5094255;28;20021;-78
2023/07/26 01:23:10;;;;;;;0.10;0.10;;;15.60;99.90;;;;;;5075621;28;20017;-78
2023/07/26 01:25:36;;;;;;;1.33;1.23;;;15.70;99.90;;;;;;5088964;28;20021;-78
2023/07/26 01:28:02;;;;;;;0.93;0.85;;;15.90;99.90;;;;;;5075375;28;20457;-78
2023/07/26 01:30:30;;;;;;;0.20;0.20;;;16.00;99.90;;;;;;5075549;28;20120;-78
2023/07/26 01:32:59;;;;;;;0.15;0.15;;;15.60;99.90;;;;;;5074515;28;20017;-77
2023/07/26 01:35:26;;;;;;;0.13;0.13;;;15.60;99.90;;;;;;5076209;28;20041;-77
2023/07/26 01:37:55;;;;;;;0.10;0.10;;;15.50;99.90;;;;;;5075786;28;20047;-78
2023/07/26 01:40:21;;;;;;;0.10;0.10;;;15.70;99.90;;;;;;5074908;28;20115;-78
2023/07/26 01:42:48;;;;;;;0.10;0.10;;;15.80;99.90;;;;;;5076274;28;20031;-76
2023/07/26 01:45:14;;;;;;;0.10;0.10;;;16.00;99.90;;;;;;5075041;28;20020;-75
2023/07/26 01:47:40;;;;;;;0.10;0.10;;;16.10;99.90;;;;;;5075658;28;20093;-75
2023/07/26 01:50:07;;;;;;;0.03;0.03;;;15.90;99.90;;;;;;5074648;28;20544;-75
2023/07/26 01:52:33;;;;;;;0.10;0.10;;;15.60;99.90;;;;;;5074490;28;20477;-75
2023/07/26 01:54:59;;;;;;;0.10;0.10;;;15.50;99.90;;;;;;5089672;28;20039;-78
2023/07/26 01:57:25;;;;;;;0.10;0.10;;;15.60;99.90;;;;;;5075651;28;20032;-78
2023/07/26 01:59:52;;;;;;;0.10;0.10;;;15.80;99.90;;;;;;5074404;28;20020;-78
2023/07/26 02:02:18;;;;;;;0.15;0.15;;;15.60;99.90;;;;;;5072107;28;20078;-78
2023/07/26 02:04:44;;;;;;;8.68;0.45;;;15.30;99.90;;;;;;5072453;28;20029;-78
2023/07/26 02:07:10;;;;;;;0.65;0.65;;;15.20;99.90;;;;;;5055736;28;20120;-78
2023/07/26 02:09:36;;;;;;;0.38;0.38;;;15.10;99.90;;;;;;5079019;28;20119;-78
2023/07/26 02:12:03;;;;;;;0.32;0.20;;;15.20;99.90;;;;;;5072483;28;20465;-78
2023/07/26 02:14:28;;;;;;;0.10;0.10;;;15.10;99.90;;;;;;5072305;28;20435;-75
2023/07/26 02:16:54;;;;;;;0.10;0.10;;;15.20;99.90;;;;;;5072959;28;20028;-78
2023/07/26 02:19:20;;;;;;;0.10;0.10;;;15.10;99.90;;;;;;5081713;28;20040;-78
2023/07/26 02:21:46;;;;;;;0.25;0.25;;;15.10;99.90;;;;;;5092529;28;20016;-78
2023/07/26 02:24:12;;;;;;;0.13;0.13;;;14.90;99.90;;;;;;5092567;28;20101;-78
2023/07/26 02:26:37;;;;;;;0.20;0.20;;;14.80;99.90;;;;;;5092523;28;20028;-78
2023/07/26 02:29:03;;;;;;;0.43;0.43;;;15.20;99.90;;;;;;5092154;28;20036;-78
2023/07/26 02:31:30;;;;;;;0.10;0.10;;;15.00;99.90;;;;;;5092348;28;20032;-78
2023/07/26 02:33:56;;;;;;;0.20;0.20;;;14.90;99.90;;;;;;5092112;28;20477;-78
2023/07/26 02:36:22;;;;;;;0.38;0.38;;;14.90;99.90;;;;;;5093587;28;20031;-78
2023/07/26 02:38:47;;;;;;;0.22;0.10;;;15.10;99.90;;;;;;5075184;28;20027;-77
2023/07/26 02:41:13;;;;;;;1.42;1.25;;;15.20;99.90;;;;;;5092326;28;20024;-78
2023/07/26 02:43:39;;;;;;;1.55;0.82;;;15.10;99.90;;;;;;5093074;28;20027;-78
2023/07/26 02:46:05;;;;;;;10.00;1.23;;;14.90;99.90;;;;;;5093239;28;20016;-78
2023/07/26 02:48:30;;;;;;;0.35;0.35;;;14.80;99.90;;;;;;5093446;28;20501;-78
2023/07/26 02:50:56;;;;;;;0.25;0.25;;;15.00;99.90;;;;;;5093326;28;20040;-78
2023/07/26 02:53:22;;;;;;;0.10;0.10;;;14.90;99.90;;;;;;5091896;28;20071;-78
2023/07/26 02:55:48;;;;;;;0.10;0.10;;;14.70;99.90;;;;;;5093161;28;20027;-77
2023/07/26 02:58:13;;;;;;;0.20;0.20;;;14.80;99.90;;;;;;5091207;28;20387;-78
2023/07/26 03:00:39;;;;;;;0.10;0.10;;;14.80;99.90;;;;;;5093290;28;20519;-78
2023/07/26 03:03:05;;;;;;;1.50;1.40;;;14.80;99.90;;;;;;5093179;28;20032;-78
2023/07/26 03:05:31;;;;;;;0.20;0.20;;;14.90;99.90;;;;;;5093078;28;20151;-78
2023/07/26 03:07:56;;;;;;;0.10;0.10;;;14.80;99.90;;;;;;5091758;28;20060;-78
2023/07/26 03:10:22;;;;;;;0.10;0.10;;;14.70;99.90;;;;;;5091667;28;20039;-78
2023/07/26 03:12:48;;;;;;;0.03;0.03;;;14.90;99.90;;;;;;5091550;28;20020;-78
2023/07/26 03:15:14;;;;;;;0.20;0.20;;;15.00;99.90;;;;;;5091629;28;20070;-78
2023/07/26 03:17:39;;;;;;;0.10;0.10;;;15.10;99.90;;;;;;5084576;28;20021;-75
2023/07/26 03:20:06;;;;;;;0.45;0.45;;;15.10;99.90;;;;;;5086875;28;20482;-75
2023/07/26 03:22:31;;;;;;;0.25;0.25;;;14.80;99.90;;;;;;5091657;28;20072;-78
2023/07/26 03:24:57;;;;;;;0.30;0.30;;;14.80;99.90;;;;;;5092663;28;20024;-78
2023/07/26 03:27:23;;;;;;;0.10;0.10;;;15.00;99.90;;;;;;5092296;28;20668;-78
2023/07/26 03:29:49;;;;;;;0.20;0.20;;;15.00;99.90;;;;;;5092541;28;20492;-78
2023/07/26 03:32:14;;;;;;;0.10;0.10;;;15.00;99.90;;;;;;5091044;28;20085;-78
2023/07/26 03:34:40;;;;;;;0.10;0.10;;;15.10;99.90;;;;;;5092528;28;20039;-78
2023/07/26 03:37:07;;;;;;;0.20;0.20;;;15.20;99.90;;;;;;5092527;28;20024;-78
2023/07/26 03:39:33;;;;;;;0.20;0.20;;;15.10;99.90;;;;;;5092597;28;20027;-78
2023/07/26 03:42:00;;;;;;;0.10;0.10;;;15.20;99.90;;;;;;5091162;28;20468;-78
2023/07/26 03:44:25;;;;;;;0.10;0.10;;;15.20;99.90;;;;;;5092355;28;20028;-76
2023/07/26 03:46:51;;;;;;;0.10;0.10;;;15.30;99.90;;;;;;5091133;28;20020;-76
2023/07/26 03:49:17;;;;;;;0.10;0.10;;;15.40;99.90;;;;;;5092334;28;20066;-76
2023/07/26 03:51:42;;;;;;;0.10;0.10;;;15.30;99.90;;;;;;5095987;28;20525;-76
2023/07/26 03:54:08;;;;;;;0.00;0.00;;;15.50;99.90;;;;;;5095131;28;20021;-75
2023/07/26 03:56:34;;;;;;;0.57;0.57;;;15.60;99.90;;;;;;5094896;28;20031;-76
2023/07/26 03:59:00;;;;;;;0.10;0.10;;;15.70;99.90;;;;;;5096320;28;20029;-75
2023/07/26 04:01:25;;;;;;;0.10;0.10;;;15.30;99.90;;;;;;5093911;28;20020;-75
2023/07/26 04:03:51;;;;;;;0.25;0.25;;;15.40;99.90;;;;;;5096059;28;20115;-78
2023/07/26 04:06:17;;;;;;;2.47;1.20;;;15.20;99.90;;;;;;5094682;28;20028;-78
2023/07/26 04:08:43;;;;;;;0.30;0.30;;;14.90;99.90;;;;;;5096223;28;20031;-78
2023/07/26 04:11:08;;;;;;;0.13;0.13;;;14.60;99.90;;;;;;5094671;28;20123;-78
2023/07/26 04:13:34;;;;;;;0.00;0.00;;;14.60;99.90;;;;;;5096255;28;20465;-78
2023/07/26 04:16:00;;;;;;;0.28;0.25;;;14.80;99.90;;;;;;5096394;28;20047;-78
2023/07/26 04:18:26;;;;;;;0.10;0.10;;;14.90;99.90;;;;;;5081719;28;20024;-78
2023/07/26 04:20:53;;;;;;;0.10;0.10;;;14.90;99.90;;;;;;5097500;28;20103;-78
2023/07/26 04:23:19;;;;;;;0.10;0.10;;;14.90;99.90;;;;;;5097914;28;20107;-77
2023/07/26 04:25:50;;;;;;;0.88;0.88;;;14.50;99.90;;;;;;5096922;28;20490;-77
2023/07/26 04:28:16;;;;;;;0.50;0.50;;;14.50;99.90;;;;;;5097676;28;20039;-77
2023/07/26 04:30:42;;;;;;;1.50;0.88;;;14.50;99.90;;;;;;5097237;28;20036;-78
2023/07/26 04:33:07;;;;;;;0.20;0.20;;;14.70;99.90;;;;;;5097492;28;20023;-77
2023/07/26 04:35:33;;;;;;;0.00;0.00;;;14.60;99.90;;;;;;5097205;28;20044;-78
2023/07/26 04:37:59;;;;;;;0.00;0.00;;;14.70;99.90;;;;;;5097285;28;20123;-77
2023/07/26 04:40:24;;;;;;;0.10;0.10;;;14.70;99.90;;;;;;5083375;28;20037;-78
2023/07/26 04:42:50;;;;;;;2.13;0.47;;;14.60;99.90;;;;;;5096374;28;20028;-78
2023/07/26 04:45:16;;;;;;;1.30;1.10;;;14.40;99.90;;;;;;5097387;28;20030;-77
2023/07/26 04:47:42;;;;;;;0.80;0.80;;;14.40;99.90;;;;;;5096949;28;20020;-78
2023/07/26 04:50:08;;;;;;;0.63;0.63;;;14.30;99.90;;;;;;5095912;28;20035;-77
2023/07/26 04:52:37;;;;;;;0.57;0.57;;;14.10;99.90;;;;;;5096157;28;20539;-78
2023/07/26 04:55:07;;;;;;;0.10;0.10;;;14.20;99.90;;;;;;5095283;28;20510;-78
2023/07/26 04:57:33;;;;;;;0.20;0.20;;;14.10;99.90;;;;;;5095120;28;20487;-78
2023/07/26 04:59:58;;;;;;;1.42;1.27;;;14.30;99.90;;;;;;5095541;28;20024;-78
2023/07/26 05:02:24;;;;;;;0.63;0.40;;;14.40;99.90;;;;;;5093886;28;20083;-78
2023/07/26 05:04:50;;;;;;;0.80;0.65;;;14.60;99.90;;;;;;5091859;28;20040;-77
2023/07/26 05:07:15;;;;;;;0.08;0.08;;;14.80;99.90;;;;;;5072722;28;20031;-78
2023/07/26 05:09:41;;;;;;;0.25;0.25;;;14.70;99.90;;;;;;5073905;28;20054;-77
2023/07/26 05:12:07;;;;;;;0.28;0.28;;;14.50;99.90;;;;;;5074783;28;20036;-77
2023/07/26 05:14:33;;;;;;;0.88;0.80;;;14.50;99.90;;;;;;5074812;28;20025;-77
2023/07/26 05:16:58;;;;;;;0.10;0.10;;;14.60;99.90;;;;;;5074457;28;20030;-77
2023/07/26 05:19:24;;;;;;;1.48;1.17;;;14.50;99.90;;;;;;5083580;28;20107;-78
2023/07/26 05:21:50;;;;;;;0.20;0.20;;;14.70;99.90;;;;;;5094836;28;20081;-78
2023/07/26 05:24:15;;;;;;;0.35;0.35;;;14.60;99.90;;;;;;5094624;28;20027;-78
2023/07/26 05:26:41;;;;;;;0.15;0.15;;;14.40;99.90;;;;;;5094863;28;20020;-78
2023/07/26 05:29:07;;;;;;;0.10;0.10;;;14.40;99.90;;;;;;5093525;28;20040;-77
2023/07/26 05:31:33;;;;;;;5.40;1.13;;;14.50;99.90;;;;;;5093290;28;20028;-78
2023/07/26 05:33:58;;;;;;;9.95;1.55;;;14.50;99.90;;;;;;5094695;28;20024;-75
2023/07/26 05:36:24;;;;;;;0.10;0.10;;;14.50;99.90;;;;;;5094693;28;20032;-77
2023/07/26 05:38:50;;;;;;;7.63;0.80;;;14.70;99.90;;;;;;5094095;28;20083;-78
2023/07/26 05:41:15;;;;;;;7.65;3.55;;;14.60;99.90;;;;;;5094679;28;20054;-78
2023/07/26 05:43:41;;;;;;;1.58;0.65;;;14.50;99.90;;;;;;5094470;28;20032;-78
2023/07/26 05:46:07;;;;;;;0.93;0.75;;;14.60;99.90;;;;;;5094523;28;20028;-78
2023/07/26 05:48:33;;;;;;;0.13;0.13;;;14.90;99.90;;;;;;5094404;28;20028;-77
2023/07/26 05:50:58;;;;;;;0.10;0.10;;;14.80;99.90;;;;;;5094739;28;20369;-77
2023/07/26 05:53:24;;;;;;;0.30;0.30;;;14.90;99.90;;;;;;5093975;28;20051;-77
2023/07/26 05:55:50;;;;;;;1.17;0.95;;;14.90;99.90;;;;;;5093036;28;20039;-77
2023/07/26 05:58:16;;;;;;;0.43;0.43;;;15.10;99.90;;;;;;5094217;28;20032;-77
2023/07/26 06:00:41;;;;;;;0.82;0.40;;;15.50;99.90;;;;;;5094404;28;20031;-77
2023/07/26 06:03:07;;;;;;;0.88;0.63;;;15.70;99.90;;;;;;5092530;28;20103;-78
2023/07/26 06:05:33;;;;;;;2.65;1.98;;;15.50;99.90;;;;;;5094112;28;20480;-77
2023/07/26 06:07:58;;;;;;;3.70;2.67;;;15.50;99.90;;;;;;5092128;28;20035;-77
2023/07/26 06:10:24;;;;;;;3.08;1.88;;;15.40;99.90;;;;;;5094064;28;20438;-77
2023/07/26 06:12:50;;;;;;;0.10;0.10;;;15.60;99.90;;;;;;5093559;28;20392;-77
2023/07/26 06:15:16;;;;;;;0.10;0.10;;;15.80;99.90;;;;;;5092803;28;20070;-76
2023/07/26 06:17:41;;;;;;;1.27;1.17;;;16.00;99.90;;;;;;5085113;28;20071;-77
2023/07/26 06:20:07;;;;;;;0.70;0.63;;;16.00;99.90;;;;;;5088302;28;20032;-77
2023/07/26 06:22:33;;;;;;;2.33;1.98;;;16.10;99.90;;;;;;5093425;28;20024;-77
2023/07/26 06:24:59;;;;;;;1.63;1.00;;;15.80;99.90;;;;;;5093884;28;20098;-77
2023/07/26 06:27:28;;;;;;;2.85;1.75;;;16.10;99.90;;;;;;5093561;28;20016;-78
2023/07/26 06:29:54;;;;;;;1.30;1.20;;;16.10;99.90;;;;;;5091880;28;20028;-78
2023/07/26 06:32:20;;;;;;;0.98;0.82;;;16.20;99.90;;;;;;5081929;28;20123;-78
2023/07/26 06:34:46;;;;;;;1.02;1.00;;;16.30;99.90;;;;;;5082670;28;20102;-75
2023/07/26 06:37:12;;;;;;;1.23;1.13;;;16.30;99.90;;;;;;5084741;28;20023;-75
2023/07/26 06:39:37;;;;;;;2.20;0.30;;;16.40;99.90;;;;;;5078586;28;20032;-75
2023/07/26 06:42:03;;;;;;;1.70;1.58;;;16.30;99.90;;;;;;5076228;28;20024;-75
2023/07/26 06:44:29;;;;;;;0.95;0.68;;;16.20;99.90;;;;;;5073678;28;20025;-76
2023/07/26 06:46:55;;;;;;;7.10;1.35;;;16.20;99.90;;;;;;5079095;28;20020;-76
2023/07/26 06:49:20;;;;;;;0.50;0.50;;;16.10;99.90;;;;;;5075961;28;20028;-76
2023/07/26 06:51:46;;;;;;;2.50;1.77;;;16.40;99.90;;;;;;5078942;28;20063;-76
2023/07/26 06:54:12;;;;;;;0.43;0.40;;;16.40;99.90;;;;;;5080276;28;20036;-76
2023/07/26 06:56:37;;;;;;;0.30;0.30;;;16.50;99.90;;;;;;5074371;28;20024;-75
2023/07/26 06:59:12;;;;;;;0.73;0.70;;;16.50;99.90;;;;;;5079176;28;20416;-76
2023/07/26 07:01:38;;;;;;;0.17;0.15;;;16.70;99.90;;;;;;5084255;28;20021;-75
2023/07/26 07:04:04;;;;;;;0.70;0.68;;;16.70;99.90;;;;;;5084846;28;20032;-76
2023/07/26 07:06:30;;;;;;;1.17;1.00;;;17.00;99.90;;;;;;5075025;28;20056;-76
2023/07/26 07:08:56;;;;;;;0.25;0.25;;;17.00;99.90;;;;;;5075379;28;20047;-76
2023/07/26 07:11:21;;;;;;;1.13;0.45;;;17.20;99.90;;;;;;5073870;28;20472;-77
2023/07/26 07:13:47;;;;;;;1.38;0.63;;;17.20;99.90;;;;;;5078664;28;20044;-76
2023/07/26 07:16:13;;;;;;;1.92;1.55;;;17.10;99.90;;;;;;5080785;28;20040;-76
2023/07/26 07:18:39;;;;;;;2.85;0.93;;;17.30;99.90;;;;;;5087107;28;20018;-76
2023/07/26 07:21:04;;;;;;;7.85;1.38;;;17.60;99.90;;;;;;5087561;28;20024;-76
2023/07/26 07:23:30;;;;;;;0.30;0.30;;;17.60;99.90;;;;;;5091884;28;20020;-76
2023/07/26 07:25:56;;;;;;;1.75;1.00;;;18.10;99.90;;;;;;5091217;28;20488;-76
2023/07/26 07:28:22;;;;;;;3.20;1.67;;;17.90;99.90;;;;;;5092044;28;20079;-73
2023/07/26 07:30:49;;;;;;;2.85;1.33;;;17.90;99.90;;;;;;5091331;28;20107;-76
2023/07/26 07:33:15;;;;;;;5.53;1.25;;;18.10;99.90;;;;;;5089405;28;20499;-76
2023/07/26 07:35:41;;;;;;;0.17;0.17;;;18.20;99.90;;;;;;5080425;28;20086;-78
2023/07/26 07:38:07;;;;;;;1.80;1.52;;;18.00;99.90;;;;;;5072399;28;20057;-77
2023/07/26 07:40:33;;;;;;;5.38;0.60;;;18.50;99.90;;;;;;5071334;28;20020;-76
2023/07/26 07:42:58;;;;;;;1.95;1.80;;;18.20;99.90;;;;;;5071152;28;20032;-76
2023/07/26 07:45:24;;;;;;;1.05;1.00;;;18.00;99.90;;;;;;5072155;28;20025;-76
2023/07/26 07:47:50;;;;;;;2.55;0.88;;;18.20;99.90;;;;;;5071224;28;20028;-76
2023/07/26 07:50:15;;;;;;;0.32;0.32;;;18.70;99.90;;;;;;5071924;28;20024;-75
2023/07/26 07:52:41;;;;;;;4.75;2.10;;;19.10;99.90;;;;;;5072307;28;20090;-76
2023/07/26 07:55:07;;;;;;;2.45;1.30;;;18.50;99.90;;;;;;5072296;28;20017;-75
2023/07/26 07:57:33;;;;;;;0.98;0.65;;;18.70;99.90;;;;;;5072171;28;20070;-76
2023/07/26 07:59:59;;;;;;;1.25;0.90;;;19.00;99.90;;;;;;5071001;28;20052;-77
2023/07/26 08:02:24;;;;;;;0.90;0.90;;;18.90;99.90;;;;;;5072222;28;20127;-76
2023/07/26 08:04:50;;;;;;;0.60;0.57;;;18.80;99.90;;;;;;5070222;28;20028;-76
2023/07/26 08:07:16;;;;;;;1.63;1.08;;;19.30;99.90;;;;;;5071985;28;20373;-77
2023/07/26 08:09:42;;;;;;;2.17;0.95;;;19.00;99.90;;;;;;5071941;28;20469;-76
2023/07/26 08:12:08;;;;;;;1.27;0.50;;;18.90;99.90;;;;;;5072073;28;20020;-75
2023/07/26 08:14:34;;;;;;;2.40;0.95;;;19.40;99.90;;;;;;5071903;28;20035;-75
2023/07/26 08:17:00;;;;;;;0.32;0.32;;;19.60;99.90;;;;;;5071992;28;20029;-76
2023/07/26 08:19:26;;;;;;;2.15;1.42;;;19.70;99.90;;;;;;5080765;28;20088;-76
2023/07/26 08:21:52;;;;;;;2.92;0.75;;;19.10;99.90;;;;;;5092112;28;20020;-76
2023/07/26 08:24:17;;;;;;;0.30;0.30;;;19.40;99.90;;;;;;5091270;28;20043;-76
2023/07/26 08:26:43;;;;;;;1.95;1.33;;;19.60;99.90;;;;;;5092225;28;20384;-76
2023/07/26 08:29:10;;;;;;;1.13;0.47;;;19.60;99.90;;;;;;5092310;28;20024;-76
2023/07/26 08:31:36;;;;;;;1.23;0.75;;;19.70;99.90;;;;;;5080748;28;20040;-76
2023/07/26 08:34:02;;;;;;;0.47;0.40;;;20.10;99.90;;;;;;5076585;28;20099;-76
2023/07/26 08:36:28;;;;;;;1.65;1.00;;;20.20;99.90;;;;;;5080650;28;20103;-76
2023/07/26 08:38:54;;;;;;;0.10;0.10;;;19.90;99.90;;;;;;5089689;28;20012;-76
2023/07/26 08:41:20;;;;;;;0.90;0.90;;;19.80;99.90;;;;;;5089933;28;20475;-76
2023/07/26 08:43:48;;;;;;;1.08;0.68;;;19.60;99.90;;;;;;5093147;28;20027;-76
2023/07/26 08:46:15;;;;;;;1.10;1.00;;;20.00;99.90;;;;;;5090450;28;20035;-76
2023/07/26 08:48:41;;;;;;;2.38;0.73;;;19.80;99.90;;;;;;5086363;28;20114;-76
2023/07/26 08:51:08;;;;;;;5.13;2.47;;;19.60;99.90;;;;;;5087705;28;20058;-76
2023/07/26 08:53:35;;;;;;;0.47;0.25;;;19.40;99.90;;;;;;5091918;28;20110;-76
2023/07/26 08:56:01;;;;;;;1.25;0.70;;;19.50;99.90;;;;;;5087033;28;20512;-76
2023/07/26 08:58:27;;;;;;;0.57;0.50;;;20.10;99.90;;;;;;5092239;28;20739;-75
2023/07/26 09:00:54;;;;;;;1.65;1.10;;;20.20;99.90;;;;;;5090029;28;20048;-73
2023/07/26 09:03:19;;;;;;;3.50;1.27;;;20.50;99.90;;;;;;5090431;28;20119;-76
2023/07/26 09:05:45;;;;;;;1.45;0.98;;;20.90;99.90;;;;;;5082471;28;20103;-76
2023/07/26 09:08:11;;;;;;;1.45;0.75;;;20.70;99.90;;;;;;5087564;28;20538;-76
2023/07/26 09:10:40;;;;;;;1.52;0.82;;;20.60;99.90;;;;;;5090594;28;20028;-76
2023/07/26 09:13:13;;;;;;;0.90;0.47;;;20.50;99.90;;;;;;5089014;28;20032;-75
2023/07/26 09:15:41;;;;;;;1.23;1.08;;;20.90;99.90;;;;;;5088140;28;20020;-76
2023/07/26 09:18:08;;;;;;;0.30;0.30;;;20.60;99.90;;;;;;5090909;28;20024;-76
2023/07/26 09:20:35;;;;;;;0.80;0.73;;;20.20;99.90;;;;;;5092428;28;20032;-76
2023/07/26 09:23:11;;;;;;;0.82;0.55;;;20.20;99.90;;;;;;5093587;28;20053;-76
2023/07/26 09:25:42;;;;;;;2.72;1.15;;;20.20;99.90;;;;;;5093785;28;20111;-76
2023/07/26 09:28:15;;;;;;;2.00;0.70;;;20.00;99.90;;;;;;5092492;28;20073;-76
2023/07/26 09:30:43;;;;;;;0.55;0.55;;;19.90;99.90;;;;;;5088971;28;20032;-76
2023/07/26 09:33:10;;;;;;;0.65;0.65;;;19.80;99.90;;;;;;5092150;28;20028;-75
2023/07/26 09:35:52;;;;;;;2.20;0.45;;;19.70;99.90;;;;;;5089968;28;20047;-75
2023/07/26 09:38:23;;;;;;;1.02;0.98;;;19.40;99.90;;;;;;5091425;28;20122;-76
2023/07/26 09:40:49;;;;;;;0.77;0.73;;;19.60;99.90;;;;;;5093159;28;20101;-75
2023/07/26 09:43:31;;;;;;;0.52;0.20;;;20.00;99.90;;;;;;5093112;28;20476;-76
2023/07/26 09:46:05;;;;;;;0.57;0.57;;;20.30;99.90;;;;;;5092989;28;20038;-76
2023/07/26 09:48:31;;;;;;;0.00;0.00;;;20.90;99.90;;;;;;5091566;28;20031;-76
2023/07/26 09:51:03;;;;;;;1.90;1.33;;;21.20;99.60;;;;;;5093176;28;20028;-76
2023/07/26 09:53:32;;;;;;;0.80;0.65;;;21.20;99.80;;;;;;5087569;28;20036;-76
2023/07/26 09:55:58;;;;;;;0.60;0.60;;;21.10;97.90;;;;;;5091702;28;20115;-76
2023/07/26 09:58:28;;;;;;;1.77;0.80;;;21.00;98.60;;;;;;5092954;28;20423;-76
2023/07/26 10:00:59;;;;;;;0.38;0.38;;;20.90;97.70;;;;;;5092640;28;20055;-76
2023/07/26 10:03:26;;;;;;;0.40;0.28;;;21.20;98.10;;;;;;5087786;28;20522;-75
2023/07/26 10:05:53;;;;;;;3.20;0.90;;;21.40;95.90;;;;;;5088240;28;20350;-76
2023/07/26 10:08:19;;;;;;;5.18;1.33;;;22.00;96.60;;;;;;5093216;28;20028;-76
2023/07/26 10:10:47;;;;;;;0.70;0.52;;;21.80;95.40;;;;;;5094060;28;20114;-76
2023/07/26 10:13:15;;;;;;;1.48;0.60;;;22.30;94.50;;;;;;5075819;28;20048;-76
2023/07/26 10:15:45;;;;;;;0.00;0.00;;;21.70;95.60;;;;;;5073709;28;20431;-76
2023/07/26 10:18:14;;;;;;;1.27;0.32;;;21.40;95.70;;;;;;5073319;28;20106;-76
2023/07/26 10:20:42;;;;;;;0.47;0.15;;;21.50;95.10;;;;;;5085756;28;20058;-76
2023/07/26 10:23:10;;;;;;;0.70;0.57;;;21.20;95.40;;;;;;5072870;28;20531;-77
2023/07/26 10:25:38;;;;;;;0.68;0.50;;;21.00;96.80;;;;;;5079673;28;20028;-77
2023/07/26 10:28:04;;;;;;;0.30;0.30;;;20.60;98.20;;;;;;5071903;28;20017;-76
2023/07/26 10:30:30;;;;;;;0.30;0.30;;;20.50;98.90;;;;;;5073189;28;20035;-77
2023/07/26 10:32:59;;;;;;;3.72;3.40;;;21.10;97.30;;;;;;5072176;28;20431;-76
2023/07/26 10:35:27;;;;;;;0.60;0.47;;;21.50;96.20;;;;;;5073138;28;20039;-76
2023/07/26 10:37:56;;;;;;;0.75;0.60;;;21.90;95.00;;;;;;5073309;28;20024;-76
2023/07/26 10:40:36;;;;;;;0.17;0.17;;;21.60;95.10;;;;;;5072544;28;20036;-76
2023/07/26 10:43:20;;;;;;;0.55;0.52;;;21.20;95.10;;;;;;5072660;28;20063;-73
2023/07/26 10:45:48;;;;;;;0.65;0.57;;;21.60;95.60;;;;;;5072818;28;20079;-76
2023/07/26 10:48:28;;;;;;;0.30;0.30;;;22.20;94.70;;;;;;5073342;28;20028;-74
2023/07/26 10:50:58;;;;;;;1.77;1.23;;;21.60;95.00;;;;;;5072663;28;20119;-76
2023/07/26 10:53:38;;;;;;;1.55;1.05;;;21.20;94.70;;;;;;5072962;28;20032;-77
2023/07/26 10:56:12;;;;;;;1.10;0.70;;;21.30;95.50;;;;;;5070750;28;20034;-76
2023/07/26 10:59:13;;;;;;;4.53;1.38;;;21.90;94.60;;;;;;5072219;28;20487;-74
2023/07/26 11:01:46;;;;;;;0.75;0.73;;;22.10;93.90;;;;;;5060014;28;20054;-76
2023/07/26 11:04:14;;;;;;;1.55;0.88;;;22.20;92.70;;;;;;5072852;28;20047;-76
2023/07/26 11:06:58;;;;;;;0.00;0.00;;;22.70;92.90;;;;;;5072856;28;20032;-76
2023/07/26 11:09:29;;;;;;;2.30;0.88;;;23.00;92.90;;;;;;5072256;28;20032;-76
2023/07/26 11:12:00;;;;;;;0.83;0.33;;;22.70;91.10;;;;;;5072419;28;20032;-75
2023/07/26 11:14:30;;;;;;;0.00;0.00;;;22.20;91.40;;;;;;5071449;28;20165;-75
2023/07/26 11:16:58;;;;;;;0.00;0.00;;;22.30;92.40;;;;;;5070004;28;20480;-76
2023/07/26 11:19:24;;;;;;;1.10;0.52;;;22.40;92.40;;;;;;5080722;28;20021;-73
2023/07/26 11:21:49;;;;;;;0.60;0.60;;;21.90;92.70;;;;;;5075667;28;20433;-76
2023/07/26 11:24:15;;;;;;;0.52;0.35;;;21.50;93.90;;;;;;5069680;28;20044;-77
2023/07/26 11:26:44;;;;;;;0.45;0.45;;;22.40;92.50;;;;;;5071047;28;20082;-76
2023/07/26 11:29:10;;;;;;;0.10;0.10;;;23.10;90.60;;;;;;5072350;28;20044;-75
2023/07/26 11:31:36;;;;;;;1.55;0.95;;;22.90;91.90;;;;;;5071222;28;20501;-74
2023/07/26 11:34:18;;;;;;;1.33;0.93;;;22.20;91.10;;;;;;5073004;28;20411;-75
2023/07/26 11:36:44;;;;;;;0.63;0.45;;;22.50;92.60;;;;;;5072591;28;20063;-75
2023/07/26 11:39:21;;;;;;;0.40;0.20;;;22.70;90.60;;;;;;5072131;28;20081;-74
2023/07/26 11:41:50;;;;;;;0.00;0.00;;;22.40;90.50;;;;;;5072132;28;20499;-75
2023/07/26 11:44:19;;;;;;;0.55;0.55;;;22.80;90.60;;;;;;5072342;28;20078;-75
2023/07/26 11:46:45;;;;;;;0.63;0.32;;;23.20;90.10;;;;;;5072394;28;20029;-75
2023/07/26 11:49:21;;;;;;;2.08;0.80;;;22.40;91.40;;;;;;5072397;28;20032;-77
2023/07/26 11:51:48;;;;;;;0.32;0.32;;;22.40;90.20;;;;;;5072204;28;20374;-77
2023/07/26 11:54:14;;;;;;;0.43;0.30;;;21.90;90.50;;;;;;5072036;28;20066;-77
2023/07/26 11:56:40;;;;;;;1.08;0.77;;;21.80;90.90;;;;;;5070535;28;20020;-78
2023/07/26 11:59:08;;;;;;;1.05;0.98;;;21.50;91.20;;;;;;5072148;28;20468;-78
2023/07/26 12:01:36;;;;;;;8.77;1.30;;;22.40;91.60;;;;;;5070214;28;20021;-77
2023/07/26 12:04:13;;;;;;;1.85;0.57;;;22.80;90.10;;;;;;5076616;28;20040;-77
2023/07/26 12:06:44;;;;;;;0.10;0.10;;;23.10;89.40;;;;;;5071452;28;20028;-78
2023/07/26 12:09:11;;;;;;;0.20;0.20;;;22.40;88.00;;;;;;5081551;28;20077;-77
2023/07/26 12:11:47;;;;;;;0.35;0.35;;;22.20;90.40;;;;;;5073363;28;20389;-77
2023/07/26 12:14:16;;;;;;;0.22;0.22;;;22.10;92.70;;;;;;5075859;28;20032;-77
2023/07/26 12:16:53;;;;;;;1.13;0.47;;;22.70;92.30;;;;;;5075651;28;20388;-74
2023/07/26 12:19:25;;;;;;;0.43;0.32;;;23.40;91.80;;;;;;5083962;28;20032;-75
2023/07/26 12:21:51;;;;;;;0.40;0.40;;;24.00;92.10;;;;;;5095962;28;20169;-75
2023/07/26 12:24:17;;;;;;;1.02;0.93;;;23.80;92.20;;;;;;5094809;28;20099;-75
2023/07/26 12:26:47;;;;;;;2.47;1.05;;;22.90;91.70;;;;;;5083069;28;20024;-75
2023/07/26 12:29:14;;;;;;;2.60;1.25;;;23.20;92.90;;;;;;5075609;28;20032;-77
2023/07/26 12:31:40;;;;;;;0.93;0.65;;;23.20;92.40;;;;;;5075226;28;20028;-75
2023/07/26 12:34:08;;;;;;;1.20;0.57;;;23.30;91.90;;;;;;5075327;28;20020;-75
2023/07/26 12:36:45;;;;;;;3.55;1.00;;;23.60;91.80;;;;;;5075457;28;20401;-75
2023/07/26 12:39:16;;;;;;;1.40;0.80;;;23.90;91.10;;;;;;5073786;28;20033;-75
2023/07/26 12:41:43;;;;;;;4.25;1.10;;;23.90;91.40;;;;;;5075226;28;20389;-75
2023/07/26 12:44:08;;;;;;;0.77;0.52;;;23.60;90.50;;;;;;5074063;28;20040;-75
2023/07/26 12:46:35;;;;;;;1.65;1.15;;;23.70;90.70;;;;;;5074056;28;20028;-75
2023/07/26 12:49:01;;;;;;;2.25;0.98;;;24.50;90.40;;;;;;5075212;28;20039;-75